Time;durP1;ratioP1;P1;durP2;ratioP2;P2;SDS_P1;SDS_P2;PMS_P1;PMS_P2;Temp;Humidity;BMP_temperature;BMP_pressure;BME280_temperature;BME280_humidity;BME280_pressure;Samples;Min_cycle;Max_cycle;Signal;HPM_P1;HPM_P2
2022/11/28 00:01:45;;;;;;;0.20;0.20;;;6.20;99.90;;;;;;5047700;28;20174;-72
2022/11/28 00:04:11;;;;;;;0.13;0.13;;;6.80;99.90;;;;;;5048683;28;20052;-72
2022/11/28 00:06:39;;;;;;;0.10;0.10;;;6.20;99.90;;;;;;5029806;28;20041;-72
2022/11/28 00:09:06;;;;;;;0.10;0.10;;;6.40;99.90;;;;;;5049434;28;20045;-72
2022/11/28 00:11:31;;;;;;;0.10;0.10;;;6.50;99.90;;;;;;5047989;28;20057;-72
2022/11/28 00:13:57;;;;;;;0.20;0.20;;;6.30;99.90;;;;;;5045442;28;20446;-72
2022/11/28 00:16:23;;;;;;;0.10;0.10;;;6.20;99.90;;;;;;5028680;28;20049;-73
2022/11/28 00:18:50;;;;;;;0.10;0.10;;;6.30;99.90;;;;;;5048936;28;20044;-72
2022/11/28 00:21:16;;;;;;;0.20;0.20;;;6.30;99.90;;;;;;5048439;28;20041;-72
2022/11/28 00:23:43;;;;;;;0.17;0.17;;;6.30;99.90;;;;;;5047956;28;20148;-72
2022/11/28 00:26:17;;;;;;;0.20;0.20;;;6.30;99.90;;;;;;5043461;28;21638;-72
2022/11/28 00:28:43;;;;;;;0.17;0.17;;;6.30;99.90;;;;;;5042305;28;20052;-72
2022/11/28 00:31:21;;;;;;;0.20;0.20;;;6.30;99.90;;;;;;5042742;28;20041;-72
2022/11/28 00:33:47;;;;;;;0.20;0.20;;;6.30;99.90;;;;;;5041793;28;20075;-72
2022/11/28 00:36:14;;;;;;;0.10;0.10;;;6.30;99.90;;;;;;5043017;28;20051;-72
2022/11/28 00:38:40;;;;;;;0.20;0.20;;;6.40;99.90;;;;;;5042844;28;20040;-72
2022/11/28 00:41:14;;;;;;;0.10;0.10;;;6.30;99.90;;;;;;5022931;28;20041;-71
2022/11/28 00:43:42;;;;;;;0.10;0.10;;;6.30;99.90;;;;;;5030157;28;20401;-71
2022/11/28 00:46:08;;;;;;;0.10;0.10;;;6.40;99.90;;;;;;5047786;28;20045;-72
2022/11/28 00:48:35;;;;;;;0.20;0.20;;;6.30;99.90;;;;;;5047959;28;20128;-72
2022/11/28 00:51:25;;;;;;;0.10;0.10;;;6.30;99.90;;;;;;5048186;28;20045;-71
2022/11/28 00:53:53;;;;;;;0.20;0.20;;;6.30;99.90;;;;;;5017309;28;20059;-72
2022/11/28 00:56:24;;;;;;;0.10;0.10;;;6.30;99.90;;;;;;5047633;28;20040;-72
2022/11/28 00:58:49;;;;;;;0.10;0.10;;;6.30;99.90;;;;;;5047388;28;20150;-71
2022/11/28 01:01:26;;;;;;;0.10;0.10;;;6.50;99.90;;;;;;5029563;28;20095;-72
2022/11/28 01:03:54;;;;;;;0.10;0.10;;;6.30;99.90;;;;;;5029713;28;20395;-72
2022/11/28 01:06:25;;;;;;;0.10;0.10;;;6.30;99.90;;;;;;5045954;28;20542;-72
2022/11/28 01:08:52;;;;;;;0.10;0.10;;;6.30;99.90;;;;;;5028886;28;20057;-72
2022/11/28 01:11:19;;;;;;;0.10;0.10;;;6.30;99.90;;;;;;5046424;28;20044;-73
2022/11/28 01:13:44;;;;;;;0.20;0.20;;;6.30;99.90;;;;;;5044506;28;20167;-72
2022/11/28 01:16:10;;;;;;;0.10;0.10;;;6.30;99.90;;;;;;5028787;28;20147;-72
2022/11/28 01:18:37;;;;;;;0.17;0.17;;;6.30;99.90;;;;;;5045732;28;20041;-72
2022/11/28 01:21:03;;;;;;;0.10;0.10;;;6.30;99.90;;;;;;5024404;28;20106;-72
2022/11/28 01:23:29;;;;;;;0.20;0.20;;;6.30;99.90;;;;;;5027526;28;20064;-73
2022/11/28 01:25:54;;;;;;;0.20;0.20;;;6.30;99.90;;;;;;5043075;28;20064;-73
2022/11/28 01:28:20;;;;;;;0.20;0.20;;;6.30;99.90;;;;;;5043151;28;20171;-73
2022/11/28 01:30:46;;;;;;;0.20;0.20;;;6.30;99.90;;;;;;5041582;28;20093;-72
2022/11/28 01:33:11;;;;;;;0.10;0.10;;;6.30;99.90;;;;;;5040924;28;21448;-73
2022/11/28 01:35:37;;;;;;;0.10;0.10;;;6.40;99.90;;;;;;5045276;28;20033;-73
2022/11/28 01:38:03;;;;;;;0.20;0.20;;;6.30;99.90;;;;;;5045527;28;20413;-73
2022/11/28 01:40:29;;;;;;;0.10;0.10;;;6.30;99.90;;;;;;5044153;28;20101;-73
2022/11/28 01:42:54;;;;;;;0.20;0.20;;;6.30;99.90;;;;;;5046079;28;20112;-72
2022/11/28 01:45:23;;;;;;;0.10;0.10;;;6.40;99.90;;;;;;5045105;28;20033;-74
2022/11/28 01:47:52;;;;;;;0.10;0.10;;;6.30;99.90;;;;;;5041256;28;20102;-73
2022/11/28 01:50:19;;;;;;;0.10;0.10;;;6.40;99.90;;;;;;5027932;28;20095;-73
2022/11/28 01:52:48;;;;;;;0.20;0.20;;;6.40;99.90;;;;;;5048163;28;20055;-72
2022/11/28 01:55:18;;;;;;;0.20;0.20;;;6.40;99.90;;;;;;5028628;28;20407;-73
2022/11/28 01:57:44;;;;;;;0.10;0.10;;;6.40;99.90;;;;;;5046037;28;20071;-72
2022/11/28 02:00:13;;;;;;;0.20;0.20;;;6.40;99.90;;;;;;5029201;28;20044;-72
2022/11/28 02:02:44;;;;;;;0.20;0.20;;;6.40;99.90;;;;;;5044679;28;20448;-72
2022/11/28 02:05:10;;;;;;;0.10;0.10;;;6.40;99.90;;;;;;5027790;28;20045;-72
2022/11/28 02:07:36;;;;;;;0.10;0.10;;;6.40;99.90;;;;;;5029881;28;20047;-72
2022/11/28 02:10:07;;;;;;;0.10;0.10;;;6.40;99.90;;;;;;5046355;28;20405;-72
2022/11/28 02:12:52;;;;;;;0.20;0.20;;;6.50;99.90;;;;;;5028114;28;20043;-73
2022/11/28 02:15:45;;;;;;;0.20;0.20;;;6.40;99.90;;;;;;5021711;28;20071;-73
2022/11/28 02:18:35;;;;;;;0.20;0.20;;;6.50;99.90;;;;;;5027662;28;20084;-73
2022/11/28 02:21:05;;;;;;;0.20;0.20;;;6.50;99.90;;;;;;5026256;28;20587;-73
2022/11/28 02:23:56;;;;;;;0.20;0.20;;;6.40;99.90;;;;;;5046748;28;20136;-73
2022/11/28 02:26:36;;;;;;;0.15;0.15;;;6.40;99.90;;;;;;5042719;28;20037;-72
2022/11/28 02:29:02;;;;;;;0.10;0.10;;;6.40;99.90;;;;;;5047586;28;20495;-72
2022/11/28 02:31:52;;;;;;;0.10;0.10;;;6.50;99.90;;;;;;5021600;28;20140;-72
2022/11/28 02:34:30;;;;;;;0.10;0.10;;;6.50;99.90;;;;;;5000552;28;20045;-75
2022/11/28 02:37:06;;;;;;;0.10;0.10;;;6.40;99.90;;;;;;5024788;28;20053;-72
2022/11/28 02:39:49;;;;;;;0.20;0.20;;;6.50;99.90;;;;;;5009054;28;20057;-72
2022/11/28 02:42:19;;;;;;;0.10;0.10;;;6.40;99.90;;;;;;5006119;28;20046;-72
2022/11/28 02:44:57;;;;;;;0.20;0.20;;;6.40;99.90;;;;;;5026461;28;20084;-72
2022/11/28 02:47:32;;;;;;;0.10;0.10;;;6.40;99.90;;;;;;5008644;28;20053;-72
2022/11/28 02:50:09;;;;;;;0.10;0.10;;;6.50;99.90;;;;;;5027459;28;20128;-72
2022/11/28 02:52:49;;;;;;;0.10;0.10;;;6.50;99.90;;;;;;5007805;28;20053;-72
2022/11/28 02:55:15;;;;;;;0.10;0.10;;;6.40;99.90;;;;;;5009028;28;20512;-72
2022/11/28 02:57:47;;;;;;;0.20;0.20;;;6.50;99.90;;;;;;5025204;28;20128;-73
2022/11/28 03:00:21;;;;;;;;;;;6.50;99.90;;;;;;5009378;28;20037;-72
2022/11/28 03:02:59;;;;;;;0.10;0.10;;;6.50;99.90;;;;;;5025727;28;19924;-72
2022/11/28 03:05:47;;;;;;;0.10;0.10;;;6.50;99.90;;;;;;5025019;28;20045;-72
2022/11/28 03:08:37;;;;;;;0.17;0.17;;;6.50;99.90;;;;;;5009270;28;20116;-72
2022/11/28 03:11:18;;;;;;;0.10;0.10;;;6.40;99.90;;;;;;5007639;28;20515;-73
2022/11/28 03:14:21;;;;;;;0.10;0.10;;;6.40;99.90;;;;;;5024435;28;20077;-73
2022/11/28 03:17:11;;;;;;;0.15;0.15;;;6.40;99.90;;;;;;5004038;28;20060;-73
2022/11/28 03:19:41;;;;;;;0.20;0.20;;;6.40;99.90;;;;;;5017341;28;20056;-72
2022/11/28 03:22:13;;;;;;;0.10;0.10;;;6.40;99.90;;;;;;5008198;28;20044;-73
2022/11/28 03:24:52;;;;;;;0.20;0.20;;;6.40;99.90;;;;;;5028003;28;20137;-73
2022/11/28 03:27:24;;;;;;;0.10;0.10;;;6.40;99.90;;;;;;5026532;28;20051;-73
2022/11/28 03:29:54;;;;;;;0.20;0.20;;;6.40;99.90;;;;;;5009239;28;20045;-73
2022/11/28 03:32:28;;;;;;;0.10;0.10;;;6.40;99.90;;;;;;5012749;28;20060;-72
2022/11/28 03:34:59;;;;;;;0.20;0.20;;;7.00;99.90;;;;;;5023472;28;20057;-73
2022/11/28 03:37:50;;;;;;;0.10;0.10;;;6.40;99.90;;;;;;5024993;28;20421;-74
2022/11/28 03:40:21;;;;;;;0.20;0.20;;;6.40;99.90;;;;;;5022550;28;20128;-71
2022/11/28 03:42:56;;;;;;;0.20;0.20;;;6.40;99.90;;;;;;5019057;28;20037;-72
2022/11/28 03:45:30;;;;;;;0.10;0.10;;;6.50;99.90;;;;;;5028871;28;20064;-72
2022/11/28 03:48:22;;;;;;;0.10;0.10;;;6.40;99.90;;;;;;5025067;28;20107;-72
2022/11/28 03:50:57;;;;;;;0.10;0.10;;;6.40;99.90;;;;;;5025172;28;20045;-72
2022/11/28 03:53:29;;;;;;;0.10;0.10;;;6.40;99.90;;;;;;5020554;28;20085;-72
2022/11/28 03:56:11;;;;;;;0.15;0.15;;;6.50;99.90;;;;;;5026234;28;20115;-72
2022/11/28 03:58:48;;;;;;;0.15;0.15;;;6.50;99.90;;;;;;5023970;28;20037;-72
2022/11/28 04:01:52;;;;;;;0.10;0.10;;;6.50;99.90;;;;;;5025656;28;20451;-72
2022/11/28 04:04:39;;;;;;;0.20;0.20;;;6.40;99.90;;;;;;5026626;28;20060;-71
2022/11/28 04:07:35;;;;;;;0.10;0.10;;;6.50;99.90;;;;;;5027767;28;20087;-73
2022/11/28 04:10:10;;;;;;;0.20;0.20;;;6.50;99.90;;;;;;5023406;28;20504;-74
2022/11/28 04:12:44;;;;;;;0.10;0.10;;;6.50;99.90;;;;;;5021300;28;20034;-74
2022/11/28 04:15:27;;;;;;;0.15;0.15;;;6.50;99.90;;;;;;5024179;28;20389;-71
2022/11/28 04:18:20;;;;;;;0.15;0.15;;;6.70;99.90;;;;;;5025477;28;20092;-71
2022/11/28 04:21:14;;;;;;;0.20;0.20;;;6.50;99.90;;;;;;5025827;28;20103;-74
2022/11/28 04:23:43;;;;;;;0.20;0.20;;;6.50;99.90;;;;;;5036655;28;20512;-71
2022/11/28 04:26:16;;;;;;;0.20;0.20;;;6.50;99.90;;;;;;5027430;28;20120;-72
2022/11/28 04:28:45;;;;;;;0.20;0.20;;;6.60;99.90;;;;;;5027641;28;20128;-72
2022/11/28 04:31:11;;;;;;;0.10;0.10;;;6.70;99.90;;;;;;5027691;28;20064;-72
2022/11/28 04:33:41;;;;;;;0.20;0.20;;;6.60;99.90;;;;;;5044383;28;20049;-72
2022/11/28 04:36:09;;;;;;;0.10;0.10;;;6.60;99.90;;;;;;5046792;28;20041;-72
2022/11/28 04:38:36;;;;;;;0.20;0.20;;;6.60;99.90;;;;;;5048120;28;20045;-72
2022/11/28 04:41:23;;;;;;;0.20;0.20;;;6.70;99.90;;;;;;5029843;28;20045;-71
2022/11/28 04:43:56;;;;;;;0.10;0.10;;;6.70;99.90;;;;;;5027297;28;20044;-72
2022/11/28 04:46:29;;;;;;;0.15;0.15;;;6.70;99.90;;;;;;5047936;28;20412;-72
2022/11/28 04:48:55;;;;;;;0.20;0.20;;;6.70;99.90;;;;;;5031934;28;20048;-71
2022/11/28 04:51:49;;;;;;;0.20;0.20;;;6.70;99.90;;;;;;5025749;28;20499;-71
2022/11/28 04:54:39;;;;;;;0.10;0.10;;;6.70;99.90;;;;;;5029080;28;20049;-72
2022/11/28 04:57:19;;;;;;;0.10;0.10;;;6.70;99.90;;;;;;5047098;28;20071;-72
2022/11/28 04:59:47;;;;;;;0.10;0.10;;;6.80;99.90;;;;;;5022858;28;20529;-72
2022/11/28 05:02:14;;;;;;;0.15;0.15;;;6.80;99.90;;;;;;5045604;28;20068;-72
2022/11/28 05:04:43;;;;;;;0.20;0.20;;;7.00;99.90;;;;;;5029141;28;20095;-71
2022/11/28 05:07:09;;;;;;;0.10;0.10;;;6.80;99.90;;;;;;5043936;28;20439;-71
2022/11/28 05:09:35;;;;;;;0.20;0.20;;;6.80;99.90;;;;;;5045715;28;20045;-71
2022/11/28 05:12:01;;;;;;;0.10;0.10;;;6.80;99.90;;;;;;5025688;28;20095;-71
2022/11/28 05:14:27;;;;;;;0.10;0.10;;;6.80;99.90;;;;;;5030317;28;20044;-71
2022/11/28 05:16:56;;;;;;;0.20;0.20;;;6.90;99.90;;;;;;5022143;28;20420;-71
2022/11/28 05:19:28;;;;;;;0.20;0.20;;;6.90;99.90;;;;;;5027498;28;20366;-74
2022/11/28 05:21:53;;;;;;;0.20;0.20;;;7.50;99.90;;;;;;5042021;28;20500;-72
2022/11/28 05:24:19;;;;;;;0.10;0.10;;;6.90;99.90;;;;;;5030111;28;20047;-72
2022/11/28 05:26:45;;;;;;;0.10;0.10;;;7.00;99.90;;;;;;5038907;28;20052;-72
2022/11/28 05:29:11;;;;;;;0.20;0.20;;;6.90;99.90;;;;;;5044133;28;20029;-72
2022/11/28 05:31:37;;;;;;;0.10;0.10;;;7.00;99.90;;;;;;5043871;28;20045;-72
2022/11/28 05:34:02;;;;;;;0.10;0.10;;;7.00;99.90;;;;;;5042380;28;20138;-72
2022/11/28 05:36:28;;;;;;;0.10;0.10;;;7.10;99.90;;;;;;5027570;28;20555;-72
2022/11/28 05:38:54;;;;;;;0.10;0.10;;;7.00;99.90;;;;;;5040508;28;20120;-71
2022/11/28 05:41:31;;;;;;;0.20;0.20;;;7.10;99.90;;;;;;5020953;28;20052;-71
2022/11/28 05:43:57;;;;;;;0.20;0.20;;;7.10;99.90;;;;;;5042400;28;20044;-73
2022/11/28 05:46:23;;;;;;;0.20;0.20;;;7.10;99.90;;;;;;5046783;28;20045;-71
2022/11/28 05:48:49;;;;;;;0.20;0.20;;;7.60;99.90;;;;;;5025671;28;20060;-73
2022/11/28 05:51:14;;;;;;;0.10;0.10;;;7.20;99.90;;;;;;5039603;28;20033;-72
2022/11/28 05:53:40;;;;;;;0.10;0.10;;;7.20;99.90;;;;;;5042755;28;20044;-72
2022/11/28 05:56:10;;;;;;;0.15;0.15;;;7.20;99.90;;;;;;5042100;28;20430;-72
2022/11/28 05:58:37;;;;;;;0.20;0.20;;;7.20;99.90;;;;;;5027443;28;20065;-71
2022/11/28 06:01:10;;;;;;;0.20;0.20;;;7.30;99.90;;;;;;5027992;28;20055;-72
2022/11/28 06:03:35;;;;;;;0.10;0.10;;;7.20;99.90;;;;;;5029839;28;20029;-71
2022/11/28 06:06:01;;;;;;;0.20;0.20;;;7.30;99.90;;;;;;5048842;28;20654;-72
2022/11/28 06:08:27;;;;;;;0.10;0.10;;;7.30;99.90;;;;;;5046958;28;20416;-72
2022/11/28 06:10:59;;;;;;;0.20;0.20;;;7.30;99.90;;;;;;5028484;28;20071;-72
2022/11/28 06:13:25;;;;;;;0.10;0.10;;;7.30;99.90;;;;;;5029607;28;20049;-73
2022/11/28 06:15:50;;;;;;;0.20;0.20;;;7.40;99.90;;;;;;5047205;28;20102;-72
2022/11/28 06:18:16;;;;;;;0.20;0.20;;;7.40;99.90;;;;;;5043808;28;20036;-72
2022/11/28 06:20:42;;;;;;;0.10;0.10;;;7.40;99.90;;;;;;5045717;28;20611;-72
2022/11/28 06:23:07;;;;;;;0.10;0.10;;;7.40;99.90;;;;;;5022412;28;20506;-72
2022/11/28 06:25:33;;;;;;;0.10;0.10;;;7.40;99.90;;;;;;5030021;28;20049;-72
2022/11/28 06:27:59;;;;;;;0.10;0.10;;;7.40;99.90;;;;;;5027636;28;20041;-73
2022/11/28 06:30:25;;;;;;;0.20;0.20;;;7.40;99.90;;;;;;5037087;28;20110;-72
2022/11/28 06:32:50;;;;;;;0.10;0.10;;;7.40;99.90;;;;;;5043697;28;20292;-72
2022/11/28 06:35:16;;;;;;;0.10;0.10;;;7.40;99.90;;;;;;5026940;28;20120;-72
2022/11/28 06:37:42;;;;;;;0.17;0.17;;;7.40;99.90;;;;;;5024181;28;20223;-72
2022/11/28 06:40:08;;;;;;;0.10;0.10;;;7.50;99.90;;;;;;5044254;28;20041;-71
2022/11/28 06:42:35;;;;;;;0.10;0.10;;;7.50;99.90;;;;;;5044780;28;20051;-71
2022/11/28 06:45:01;;;;;;;0.10;0.10;;;7.50;99.90;;;;;;5046670;28;20115;-71
2022/11/28 06:47:27;;;;;;;0.20;0.20;;;7.50;99.90;;;;;;5046394;28;20120;-71
2022/11/28 06:49:52;;;;;;;0.10;0.10;;;7.50;99.90;;;;;;5045817;28;20139;-71
2022/11/28 06:52:18;;;;;;;0.10;0.10;;;7.50;99.90;;;;;;5029326;28;20124;-72
2022/11/28 06:54:44;;;;;;;0.10;0.10;;;7.60;99.90;;;;;;5029848;28;20099;-72
2022/11/28 06:57:09;;;;;;;0.20;0.20;;;7.60;99.90;;;;;;5025073;28;20891;-72
2022/11/28 06:59:35;;;;;;;0.10;0.10;;;7.60;99.90;;;;;;5049313;28;20045;-71
2022/11/28 07:02:02;;;;;;;0.10;0.10;;;7.60;99.90;;;;;;5045704;28;20041;-72
2022/11/28 07:04:28;;;;;;;0.20;0.20;;;7.60;99.90;;;;;;5044863;28;20101;-73
2022/11/28 07:06:53;;;;;;;0.20;0.20;;;7.60;99.90;;;;;;5026429;28;20473;-72
2022/11/28 07:09:19;;;;;;;0.10;0.10;;;7.70;99.90;;;;;;5050617;28;20060;-72
2022/11/28 07:11:45;;;;;;;0.10;0.10;;;7.60;99.90;;;;;;5043636;28;20041;-71
2022/11/28 07:14:12;;;;;;;0.10;0.10;;;7.60;99.90;;;;;;5045643;28;20064;-72
2022/11/28 07:16:38;;;;;;;0.10;0.10;;;7.60;99.90;;;;;;5048857;28;20041;-71
2022/11/28 07:19:04;;;;;;;0.10;0.10;;;7.60;99.90;;;;;;5048931;28;20033;-72
2022/11/28 07:21:30;;;;;;;0.10;0.10;;;7.60;99.90;;;;;;5051243;28;20041;-72
2022/11/28 07:23:57;;;;;;;0.10;0.10;;;7.70;99.90;;;;;;5051881;28;20064;-72
2022/11/28 07:26:23;;;;;;;0.10;0.10;;;7.70;99.90;;;;;;5022587;28;20105;-73
2022/11/28 07:28:50;;;;;;;0.10;0.10;;;7.70;99.90;;;;;;5050122;28;20603;-72
2022/11/28 07:31:18;;;;;;;0.10;0.10;;;7.60;99.90;;;;;;5050775;28;20577;-72
2022/11/28 07:33:46;;;;;;;0.20;0.20;;;7.70;99.90;;;;;;5049932;28;20083;-71
2022/11/28 07:36:15;;;;;;;0.17;0.17;;;7.70;99.90;;;;;;5050152;28;20108;-72
2022/11/28 07:38:41;;;;;;;0.20;0.20;;;7.70;99.90;;;;;;5024015;28;20044;-72
2022/11/28 07:41:09;;;;;;;0.20;0.20;;;7.70;99.90;;;;;;5048864;28;20466;-71
2022/11/28 07:43:35;;;;;;;0.20;0.20;;;7.80;99.90;;;;;;5029282;28;20436;-72
2022/11/28 07:46:08;;;;;;;0.20;0.20;;;7.70;99.90;;;;;;5049098;28;20044;-72
2022/11/28 07:48:34;;;;;;;0.10;0.10;;;7.70;99.90;;;;;;5047537;28;20609;-71
2022/11/28 07:51:08;;;;;;;0.20;0.20;;;7.70;99.90;;;;;;5031361;28;20037;-71
2022/11/28 07:53:34;;;;;;;0.20;0.20;;;7.80;99.90;;;;;;5047764;28;20053;-72
2022/11/28 07:56:02;;;;;;;0.20;0.20;;;7.70;99.90;;;;;;5033170;28;20054;-72
2022/11/28 07:58:28;;;;;;;0.20;0.20;;;7.80;99.90;;;;;;5047282;28;20041;-71
2022/11/28 08:00:54;;;;;;;0.10;0.10;;;7.80;99.90;;;;;;5044981;28;20086;-72
2022/11/28 08:03:19;;;;;;;0.10;0.10;;;7.70;99.90;;;;;;5048463;28;20049;-72
2022/11/28 08:05:48;;;;;;;0.10;0.10;;;7.80;99.90;;;;;;5033611;28;20561;-72
2022/11/28 08:08:16;;;;;;;0.20;0.20;;;7.70;99.90;;;;;;5048132;28;20048;-71
2022/11/28 08:10:42;;;;;;;0.10;0.10;;;7.80;99.90;;;;;;5049986;28;20091;-72
2022/11/28 08:13:11;;;;;;;0.17;0.17;;;7.80;99.90;;;;;;5049896;28;20036;-70
2022/11/28 08:15:38;;;;;;;0.10;0.10;;;7.80;99.90;;;;;;5050661;28;20049;-72
2022/11/28 08:18:05;;;;;;;0.20;0.20;;;7.80;99.90;;;;;;5029815;28;20033;-73
2022/11/28 08:20:30;;;;;;;0.13;0.13;;;7.80;99.90;;;;;;5026176;28;20140;-71
2022/11/28 08:22:56;;;;;;;0.10;0.10;;;7.80;99.90;;;;;;5047224;28;20437;-72
2022/11/28 08:25:22;;;;;;;0.20;0.20;;;7.80;99.90;;;;;;5049404;28;20052;-72
2022/11/28 08:27:47;;;;;;;0.15;0.15;;;7.80;99.90;;;;;;5048468;28;20032;-71
2022/11/28 08:30:13;;;;;;;0.10;0.10;;;7.80;99.90;;;;;;5033182;28;20048;-71
2022/11/28 08:32:39;;;;;;;0.10;0.10;;;7.80;99.90;;;;;;5028603;28;20057;-71
2022/11/28 08:35:05;;;;;;;0.10;0.10;;;7.80;99.90;;;;;;5030382;28;20064;-71
2022/11/28 08:37:30;;;;;;;0.10;0.10;;;7.80;99.90;;;;;;5028031;28;20046;-71
2022/11/28 08:39:56;;;;;;;0.10;0.10;;;7.80;99.90;;;;;;5027775;28;20136;-72
2022/11/28 08:42:22;;;;;;;0.20;0.20;;;7.90;99.90;;;;;;5022645;28;20068;-71
2022/11/28 08:44:47;;;;;;;0.20;0.20;;;7.80;99.90;;;;;;5022813;28;20493;-72
2022/11/28 08:47:13;;;;;;;0.13;0.13;;;7.80;99.90;;;;;;5021215;28;20045;-72
2022/11/28 08:49:39;;;;;;;0.15;0.15;;;7.90;99.90;;;;;;5021155;28;20038;-72
2022/11/28 08:52:05;;;;;;;0.10;0.10;;;7.90;99.90;;;;;;5022254;28;20073;-72
2022/11/28 08:54:31;;;;;;;0.20;0.20;;;7.90;99.90;;;;;;5020333;28;20041;-72
2022/11/28 08:56:57;;;;;;;0.10;0.10;;;7.90;99.90;;;;;;5024954;28;20110;-73
2022/11/28 08:59:24;;;;;;;0.10;0.10;;;7.90;99.90;;;;;;5021532;28;20557;-71
2022/11/28 09:01:52;;;;;;;0.10;0.10;;;7.90;99.90;;;;;;5022537;28;20064;-70
2022/11/28 09:04:18;;;;;;;0.10;0.10;;;7.90;99.90;;;;;;5024029;28;20045;-70
2022/11/28 09:06:44;;;;;;;0.20;0.20;;;7.90;99.90;;;;;;5020129;28;20029;-70
2022/11/28 09:09:10;;;;;;;0.10;0.10;;;8.40;99.90;;;;;;5021941;28;20512;-71
2022/11/28 09:11:36;;;;;;;0.20;0.20;;;7.90;99.90;;;;;;5021497;28;20451;-69
2022/11/28 09:14:01;;;;;;;0.13;0.13;;;7.90;99.90;;;;;;5021501;28;20041;-73
2022/11/28 09:16:27;;;;;;;0.20;0.20;;;7.90;99.90;;;;;;5024100;28;20441;-71
2022/11/28 09:18:53;;;;;;;0.20;0.20;;;8.00;99.90;;;;;;5022587;28;20084;-71
2022/11/28 09:21:19;;;;;;;0.10;0.10;;;8.00;99.90;;;;;;5018490;28;20532;-70
2022/11/28 09:23:45;;;;;;;0.20;0.20;;;8.00;99.90;;;;;;5025432;28;20091;-70
2022/11/28 09:26:15;;;;;;;0.10;0.10;;;8.00;99.90;;;;;;5024522;28;20053;-71
2022/11/28 09:28:42;;;;;;;0.20;0.20;;;8.10;99.90;;;;;;5028061;28;20386;-72
2022/11/28 09:31:08;;;;;;;0.10;0.10;;;8.00;99.90;;;;;;5028449;28;20417;-71
2022/11/28 09:33:34;;;;;;;0.10;0.10;;;8.00;99.90;;;;;;5047666;28;20049;-71
2022/11/28 09:36:05;;;;;;;0.10;0.10;;;8.00;99.90;;;;;;5048892;28;20120;-71
2022/11/28 09:38:30;;;;;;;0.10;0.10;;;8.00;99.90;;;;;;5043379;28;20120;-71
2022/11/28 09:40:56;;;;;;;0.10;0.10;;;8.00;99.90;;;;;;5047833;28;20457;-71
2022/11/28 09:43:30;;;;;;;0.10;0.10;;;8.00;99.90;;;;;;5047050;28;20088;-71
2022/11/28 09:46:00;;;;;;;0.10;0.10;;;8.00;99.90;;;;;;5030345;28;20395;-72
2022/11/28 09:48:49;;;;;;;0.10;0.10;;;8.10;99.90;;;;;;5046287;28;20072;-71
2022/11/28 09:51:33;;;;;;;0.10;0.10;;;;;;;;;;5040958;28;20042;-76
2022/11/28 09:54:19;;;;;;;0.20;0.20;;;8.10;99.90;;;;;;5040846;28;20053;-74
2022/11/28 09:56:49;;;;;;;0.10;0.10;;;8.10;99.90;;;;;;5025958;28;20052;-72
2022/11/28 09:59:26;;;;;;;0.17;0.17;;;8.10;99.90;;;;;;5048983;28;20090;-72
2022/11/28 10:02:27;;;;;;;0.20;0.20;;;8.20;99.90;;;;;;5029753;28;20496;-72
2022/11/28 10:05:01;;;;;;;0.10;0.10;;;8.10;99.90;;;;;;5044680;28;20112;-71
2022/11/28 10:07:57;;;;;;;0.10;0.10;;;8.20;99.90;;;;;;5027613;28;20168;-72
2022/11/28 10:10:58;;;;;;;0.10;0.10;;;8.20;99.90;;;;;;5030161;28;20690;-71
2022/11/28 10:13:41;;;;;;;0.20;0.20;;;8.20;99.90;;;;;;5026437;28;20183;-71
2022/11/28 10:16:48;;;;;;;0.15;0.15;;;8.30;99.90;;;;;;5025820;28;20041;-71
2022/11/28 10:19:18;;;;;;;0.20;0.20;;;8.20;99.90;;;;;;5024933;28;20132;-71
2022/11/28 10:21:49;;;;;;;0.13;0.13;;;8.20;99.90;;;;;;5026615;28;20530;-71
2022/11/28 10:24:24;;;;;;;0.20;0.20;;;8.20;99.90;;;;;;5047647;28;20060;-71
2022/11/28 10:26:56;;;;;;;0.20;0.20;;;8.20;99.90;;;;;;5045302;28;20449;-71
2022/11/28 10:29:55;;;;;;;0.10;0.10;;;8.20;99.90;;;;;;5028388;28;20045;-71
2022/11/28 10:32:33;;;;;;;0.20;0.20;;;8.20;99.90;;;;;;5046839;28;20091;-70
2022/11/28 10:35:16;;;;;;;0.17;0.17;;;8.20;99.90;;;;;;5045270;28;20056;-72
2022/11/28 10:37:42;;;;;;;0.20;0.20;;;8.30;99.90;;;;;;5031381;28;20043;-72
2022/11/28 10:40:35;;;;;;;0.10;0.10;;;8.30;99.90;;;;;;5047669;28;20412;-71
2022/11/28 10:43:03;;;;;;;0.17;0.17;;;8.30;99.90;;;;;;5031443;28;20049;-72
2022/11/28 10:45:55;;;;;;;0.10;0.10;;;8.40;99.90;;;;;;5050867;28;20048;-71
2022/11/28 10:48:26;;;;;;;0.10;0.10;;;8.30;99.90;;;;;;5046314;28;20049;-71
2022/11/28 10:51:42;;;;;;;0.10;0.10;;;8.30;99.90;;;;;;5049658;28;20094;-72
2022/11/28 10:54:25;;;;;;;0.17;0.17;;;8.30;99.90;;;;;;4958679;28;20406;-72
2022/11/28 10:57:12;;;;;;;0.20;0.20;;;8.30;99.90;;;;;;5023500;28;20136;-71
2022/11/28 10:59:59;;;;;;;0.10;0.10;;;8.30;99.90;;;;;;5028190;28;20378;-71
2022/11/28 11:02:35;;;;;;;0.10;0.10;;;8.40;99.90;;;;;;5030098;28;20037;-72
2022/11/28 11:05:01;;;;;;;0.10;0.10;;;8.30;99.90;;;;;;5033515;28;20210;-71
2022/11/28 11:07:29;;;;;;;0.10;0.10;;;8.50;99.90;;;;;;5033011;28;20638;-71
2022/11/28 11:10:21;;;;;;;0.10;0.10;;;8.40;99.90;;;;;;5035201;28;20143;-73
2022/11/28 11:12:51;;;;;;;0.10;0.10;;;8.40;99.90;;;;;;5029139;28;20405;-73
2022/11/28 11:15:22;;;;;;;0.20;0.20;;;8.40;99.90;;;;;;5031050;28;20037;-73
2022/11/28 11:17:49;;;;;;;0.10;0.10;;;8.50;99.90;;;;;;5041227;28;20041;-73
2022/11/28 11:20:27;;;;;;;0.10;0.10;;;8.50;99.90;;;;;;5031463;28;20357;-73
2022/11/28 11:23:11;;;;;;;0.10;0.10;;;8.50;99.90;;;;;;5045662;28;20095;-73
2022/11/28 11:25:46;;;;;;;0.20;0.20;;;8.50;99.90;;;;;;5030890;28;20059;-73
2022/11/28 11:28:24;;;;;;;0.20;0.20;;;8.60;99.90;;;;;;5049502;28;20045;-72
2022/11/28 11:30:58;;;;;;;0.13;0.13;;;8.60;99.90;;;;;;5051612;28;20044;-73
2022/11/28 11:33:29;;;;;;;0.10;0.10;;;8.60;99.90;;;;;;5047961;28;20364;-72
2022/11/28 11:35:54;;;;;;;0.10;0.10;;;8.60;99.90;;;;;;5050381;28;20049;-73
2022/11/28 11:38:20;;;;;;;0.20;0.20;;;8.60;99.90;;;;;;5049421;28;20099;-73
2022/11/28 11:40:47;;;;;;;0.10;0.10;;;8.70;99.90;;;;;;5050448;28;20060;-73
2022/11/28 11:43:34;;;;;;;0.15;0.15;;;8.90;99.90;;;;;;5027681;28;20102;-73
2022/11/28 11:46:04;;;;;;;0.10;0.10;;;8.70;99.90;;;;;;5047794;28;20041;-72
2022/11/28 11:48:42;;;;;;;0.10;0.10;;;8.60;99.90;;;;;;5028671;28;20056;-73
2022/11/28 11:51:24;;;;;;;0.10;0.10;;;8.70;99.90;;;;;;5048517;28;20428;-73
2022/11/28 11:54:19;;;;;;;0.20;0.20;;;8.70;99.90;;;;;;5049113;28;20223;-73
2022/11/28 11:56:47;;;;;;;0.10;0.10;;;8.70;99.90;;;;;;5015696;28;20523;-74
2022/11/28 11:59:30;;;;;;;0.10;0.10;;;8.80;99.90;;;;;;5050728;28;20064;-73
2022/11/28 12:02:01;;;;;;;0.10;0.10;;;8.80;99.90;;;;;;5032291;28;20037;-73
2022/11/28 12:04:36;;;;;;;0.20;0.20;;;8.80;99.90;;;;;;5048862;28;20041;-73
2022/11/28 12:07:05;;;;;;;0.10;0.10;;;8.80;99.90;;;;;;5040367;28;20055;-73
2022/11/28 12:09:35;;;;;;;0.10;0.10;;;8.90;99.90;;;;;;5029289;28;20504;-73
2022/11/28 12:12:35;;;;;;;0.10;0.10;;;8.90;99.90;;;;;;5031533;28;20492;-73
2022/11/28 12:15:00;;;;;;;0.10;0.10;;;8.90;99.90;;;;;;4982405;28;20045;-72
2022/11/28 12:17:39;;;;;;;0.10;0.10;;;8.90;99.90;;;;;;5031262;28;20106;-72
2022/11/28 12:20:34;;;;;;;0.20;0.20;;;8.90;99.90;;;;;;5048286;28;20037;-72
2022/11/28 12:23:38;;;;;;;0.10;0.10;;;8.90;99.90;;;;;;5040703;28;20048;-72
2022/11/28 12:26:48;;;;;;;0.20;0.20;;;9.00;99.90;;;;;;5043685;28;20500;-72
2022/11/28 12:29:48;;;;;;;0.10;0.10;;;9.00;99.90;;;;;;5047556;28;20050;-74
2022/11/28 12:32:31;;;;;;;0.10;0.10;;;8.90;99.90;;;;;;5038050;28;20060;-73
2022/11/28 12:34:59;;;;;;;0.20;0.20;;;9.00;99.90;;;;;;5024183;28;20091;-73
2022/11/28 12:37:40;;;;;;;0.20;0.20;;;9.00;99.90;;;;;;5028297;28;20051;-73
2022/11/28 12:40:42;;;;;;;0.10;0.10;;;9.00;99.90;;;;;;5049395;28;20048;-73
2022/11/28 12:43:11;;;;;;;0.20;0.20;;;9.00;99.90;;;;;;5047364;28;20390;-73
2022/11/28 12:45:50;;;;;;;0.20;0.20;;;9.10;99.90;;;;;;5031370;28;20120;-73
2022/11/28 12:48:32;;;;;;;0.10;0.10;;;9.10;99.90;;;;;;5043021;28;20170;-73
2022/11/28 12:51:36;;;;;;;0.10;0.10;;;9.10;99.90;;;;;;5030980;28;20091;-73
2022/11/28 12:54:12;;;;;;;0.10;0.10;;;9.10;99.90;;;;;;5029837;28;20057;-73
2022/11/28 12:57:13;;;;;;;0.20;0.20;;;9.10;99.90;;;;;;5029350;28;20051;-73
2022/11/28 12:59:47;;;;;;;0.13;0.13;;;9.20;99.90;;;;;;5027212;28;20052;-74
2022/11/28 13:02:37;;;;;;;0.10;0.10;;;9.10;99.90;;;;;;5048207;28;20051;-74
2022/11/28 13:05:41;;;;;;;0.10;0.10;;;9.20;99.90;;;;;;5029815;28;20092;-73
2022/11/28 13:08:43;;;;;;;0.20;0.20;;;9.20;99.90;;;;;;5048204;28;20041;-74
2022/11/28 13:11:25;;;;;;;0.10;0.10;;;9.20;99.90;;;;;;5029697;28;20049;-71
2022/11/28 13:14:04;;;;;;;0.10;0.10;;;9.20;99.90;;;;;;5031763;28;20036;-72
2022/11/28 13:16:45;;;;;;;0.20;0.20;;;9.50;99.90;;;;;;5030488;28;20582;-72
2022/11/28 13:19:26;;;;;;;0.10;0.10;;;9.20;99.90;;;;;;5048470;28;20029;-74
2022/11/28 13:22:00;;;;;;;0.10;0.10;;;9.20;99.90;;;;;;5048912;28;20037;-74
2022/11/28 13:24:50;;;;;;;0.10;0.10;;;9.30;99.90;;;;;;5048097;28;20067;-74
2022/11/28 13:27:37;;;;;;;0.10;0.10;;;9.20;99.90;;;;;;5027134;28;20079;-73
2022/11/28 13:30:14;;;;;;;0.10;0.10;;;9.20;99.90;;;;;;5049085;28;20037;-73